createdAt,value
2023-04-15T00:01:37.280Z,100965.78
2023-04-15T00:04:04.739Z,100965.66
2023-04-15T00:06:31.306Z,100967.72
2023-04-15T00:08:57.690Z,100972.53
2023-04-15T00:11:24.511Z,100980.84
2023-04-15T00:13:51.188Z,100973.09
2023-04-15T00:16:17.699Z,100971.78
2023-04-15T00:18:44.215Z,100977.69
2023-04-15T00:21:10.610Z,100970.44
2023-04-15T00:23:36.934Z,100972.31
2023-04-15T00:26:03.353Z,100970.69
2023-04-15T00:28:30.955Z,100963.44
2023-04-15T00:30:57.548Z,100966.22
2023-04-15T00:33:24.023Z,100963.38
2023-04-15T00:35:50.907Z,100970.06
2023-04-15T00:38:17.681Z,100963.63
2023-04-15T00:40:44.371Z,100968.56
2023-04-15T00:43:10.740Z,100967.94
2023-04-15T00:45:37.289Z,100963.09
2023-04-15T00:48:04.944Z,100963.38
2023-04-15T00:50:31.268Z,100964.50
2023-04-15T00:52:57.571Z,100966.34
2023-04-15T00:55:23.880Z,100976.88
2023-04-15T00:57:50.658Z,100971.03
2023-04-15T01:00:17.013Z,100976.63
2023-04-15T01:02:43.823Z,100976.44
2023-04-15T01:05:10.348Z,100981.88
2023-04-15T01:07:36.786Z,100973.66
2023-04-15T01:10:04.600Z,100975.34
2023-04-15T01:12:32.975Z,100973.47
2023-04-15T01:14:59.647Z,100976.16
2023-04-15T01:17:26.472Z,100982.03
2023-04-15T01:19:52.972Z,100971.69
2023-04-15T01:22:19.684Z,100972.56
2023-04-15T01:25:06.215Z,100981.28
2023-04-15T01:27:33.736Z,100972.22
2023-04-15T01:30:00.071Z,100982.41
2023-04-15T01:32:26.988Z,100969.91
2023-04-15T01:34:53.401Z,100968.72
2023-04-15T01:37:20.332Z,100982.88
2023-04-15T01:39:46.690Z,100974.81
2023-04-15T01:42:13.017Z,100977.50
2023-04-15T01:44:39.351Z,100974.06
2023-04-15T01:47:06.831Z,100980.31
2023-04-15T01:49:33.209Z,100981.16
2023-04-15T01:51:59.588Z,100980.59
2023-04-15T01:54:27.384Z,100986.09
2023-04-15T01:56:53.780Z,100983.66
2023-04-15T01:59:20.127Z,100983.94
2023-04-15T02:01:46.525Z,100988.28
2023-04-15T02:04:18.856Z,100983.31
2023-04-15T02:06:45.976Z,100975.28
2023-04-15T02:09:12.400Z,100984.25
2023-04-15T02:11:39.283Z,100993.56
2023-04-15T02:14:06.354Z,100985.94
2023-04-15T02:16:33.599Z,100990.47
2023-04-15T02:19:00.622Z,100989.66
2023-04-15T02:21:27.368Z,100996.69
2023-04-15T02:23:57.131Z,100993.81
2023-04-15T02:26:24.983Z,100994.47
2023-04-15T02:28:51.383Z,100998.19
2023-04-15T02:31:17.774Z,101000.09
2023-04-15T02:33:44.312Z,100998.22
2023-04-15T02:36:12.377Z,101004.84
2023-04-15T02:38:40.714Z,101008.75
2023-04-15T02:41:07.171Z,101013.09
2023-04-15T02:43:33.549Z,101020.72
2023-04-15T02:45:59.952Z,101022.19
2023-04-15T02:48:26.972Z,101021.16
2023-04-15T02:50:53.334Z,101015.78
2023-04-15T02:53:19.974Z,101023.44
2023-04-15T02:55:46.485Z,101029.03
2023-04-15T02:58:12.821Z,101029.59
2023-04-15T03:00:39.179Z,101033.75
2023-04-15T03:03:06.748Z,101040.19
2023-04-15T03:05:33.387Z,101037.28
2023-04-15T03:08:01.193Z,101038.09
2023-04-15T03:10:27.851Z,101036.66
2023-04-15T03:12:54.216Z,101040.59
2023-04-15T03:15:21.112Z,101045.31
2023-04-15T03:17:49.443Z,101042.44
2023-04-15T03:20:16.913Z,101046.56
2023-04-15T03:22:43.428Z,101045.94
2023-04-15T03:25:09.819Z,101050.28
2023-04-15T03:27:36.653Z,101036.25
2023-04-15T03:30:03.340Z,101043.66
2023-04-15T03:32:29.748Z,101042.22
2023-04-15T03:34:56.115Z,101047.81
2023-04-15T03:37:22.454Z,101043.88
2023-04-15T03:39:48.761Z,101054.63
2023-04-15T03:42:15.562Z,101047.63
2023-04-15T03:44:42.243Z,101054.63
2023-04-15T03:47:08.649Z,101065.34
2023-04-15T03:49:36.134Z,101060.81
2023-04-15T03:52:02.655Z,101068.25
2023-04-15T03:54:29.062Z,101072.38
2023-04-15T03:56:55.928Z,101074.84
2023-04-15T03:59:22.664Z,101063.47
2023-04-15T04:01:49.634Z,101083.28
2023-04-15T04:04:16.487Z,101075.03
2023-04-15T04:06:42.866Z,101076.69
2023-04-15T04:09:09.280Z,101091.13
2023-04-15T04:11:35.748Z,101090.50
2023-04-15T04:14:02.159Z,101098.16
2023-04-15T04:16:28.769Z,101095.47
2023-04-15T04:18:55.349Z,101100.00
2023-04-15T04:21:21.805Z,101101.25
2023-04-15T04:23:48.144Z,101101.66
2023-04-15T04:26:14.499Z,101099.19
2023-04-15T04:28:40.949Z,101101.22
2023-04-15T04:31:07.675Z,101111.13
2023-04-15T04:33:34.067Z,101113.59
2023-04-15T04:36:00.459Z,101115.22
2023-04-15T04:38:26.862Z,101114.81
2023-04-15T04:40:53.195Z,101118.97
2023-04-15T04:43:19.575Z,101124.31
2023-04-15T04:45:45.960Z,101129.47
2023-04-15T04:48:12.329Z,101142.47
2023-04-15T04:50:39.025Z,101143.06
2023-04-15T04:53:05.367Z,101146.97
2023-04-15T04:55:32.282Z,101150.09
2023-04-15T04:57:58.604Z,101150.09
2023-04-15T05:00:25.253Z,101155.06
2023-04-15T05:02:51.717Z,101161.44
2023-04-15T05:05:18.164Z,101161.06
2023-04-15T05:07:44.551Z,101168.06
2023-04-15T05:10:11.452Z,101164.34
2023-04-15T05:12:38.636Z,101170.16
2023-04-15T05:15:06.483Z,101174.31
2023-04-15T05:17:35.230Z,101186.94
2023-04-15T05:20:02.903Z,101182.78
2023-04-15T05:22:29.408Z,101185.09
2023-04-15T05:24:56.024Z,101191.72
2023-04-15T05:27:23.989Z,101192.13
2023-04-15T05:29:50.547Z,101203.28
2023-04-15T05:32:17.382Z,101203.94
2023-04-15T05:34:43.829Z,101203.16
2023-04-15T05:37:10.208Z,101208.16
2023-04-15T05:39:36.775Z,101211.25
2023-04-15T05:42:03.444Z,101219.94
2023-04-15T05:44:29.967Z,101223.69
2023-04-15T05:46:56.825Z,101226.78
2023-04-15T05:49:23.268Z,101228.47
2023-04-15T05:51:49.797Z,101232.38
2023-04-15T05:54:17.362Z,101230.28
2023-04-15T05:56:44.947Z,101242.69
2023-04-15T05:59:11.558Z,101232.56
2023-04-15T06:01:38.332Z,101238.59
2023-04-15T06:04:04.890Z,101245.41
2023-04-15T06:06:32.450Z,101248.09
2023-04-15T06:08:58.823Z,101248.56
2023-04-15T06:11:26.691Z,101264.31
2023-04-15T06:13:53.083Z,101258.53
2023-04-15T06:16:19.486Z,101270.97
2023-04-15T06:18:45.895Z,101271.41
2023-04-15T06:21:12.594Z,101276.16
2023-04-15T06:23:41.302Z,101275.47
2023-04-15T06:26:08.114Z,101277.72
2023-04-15T06:28:34.591Z,101274.44
2023-04-15T06:31:01.930Z,101281.69
2023-04-15T06:33:28.540Z,101295.31
2023-04-15T06:35:54.899Z,101294.50
2023-04-15T06:38:21.424Z,101292.78
2023-04-15T06:40:47.806Z,101296.97
2023-04-15T06:43:14.177Z,101300.28
2023-04-15T06:45:40.689Z,101308.53
2023-04-15T06:48:07.160Z,101312.03
2023-04-15T06:50:33.687Z,101320.19
2023-04-15T06:53:00.028Z,101319.81
2023-04-15T06:55:26.487Z,101325.16
2023-04-15T06:57:52.793Z,101334.09
2023-04-15T07:00:19.317Z,101326.84
2023-04-15T07:02:46.690Z,101333.28
2023-04-15T07:05:13.297Z,101343.03
2023-04-15T07:07:39.676Z,101351.44
2023-04-15T07:10:06.787Z,101349.50
2023-04-15T07:12:33.242Z,101345.38
2023-04-15T07:14:59.590Z,101355.56
2023-04-15T07:17:26.403Z,101359.31
2023-04-15T07:19:52.759Z,101361.50
2023-04-15T07:22:19.129Z,101362.13
2023-04-15T07:24:46.638Z,101369.19
2023-04-15T07:27:12.927Z,101374.53
2023-04-15T07:29:39.378Z,101373.72
2023-04-15T07:32:05.883Z,101384.19
2023-04-15T07:34:32.773Z,101382.09
2023-04-15T07:36:59.275Z,101385.00
2023-04-15T07:39:25.816Z,101380.53
2023-04-15T07:41:52.215Z,101385.69
2023-04-15T07:44:18.628Z,101388.81
2023-04-15T07:46:44.945Z,101391.59
2023-04-15T07:49:11.262Z,101396.56
2023-04-15T07:51:38.405Z,101402.47
2023-04-15T07:54:04.743Z,101402.91
2023-04-15T07:56:31.157Z,101397.66
2023-04-15T07:58:57.597Z,101405.31
2023-04-15T08:01:24.016Z,101411.41
2023-04-15T08:03:51.025Z,101412.59
2023-04-15T08:06:17.693Z,101410.91
2023-04-15T08:08:44.192Z,101421.66
2023-04-15T08:11:10.769Z,101415.13
2023-04-15T08:13:37.073Z,101416.63
2023-04-15T08:16:22.446Z,101419.50
2023-04-15T08:18:50.171Z,101420.84
2023-04-15T08:21:17.720Z,101428.19
2023-04-15T08:23:45.441Z,101424.78
2023-04-15T08:26:12.822Z,101433.16
2023-04-15T08:28:41.529Z,101433.31
2023-04-15T08:31:08.694Z,101432.16
2023-04-15T08:33:35.012Z,101435.50
2023-04-15T08:36:01.399Z,101435.56
2023-04-15T08:38:27.768Z,101441.81
2023-04-15T08:40:56.422Z,101441.47
2023-04-15T08:43:26.408Z,101441.66
2023-04-15T08:45:53.155Z,101456.75
2023-04-15T08:48:20.076Z,101468.75
2023-04-15T08:50:47.838Z,101472.22
2023-04-15T08:53:15.450Z,101468.47
2023-04-15T08:55:46.056Z,101469.75
2023-04-15T08:58:13.546Z,101464.59
2023-04-15T09:00:40.586Z,101474.50
2023-04-15T09:03:08.772Z,101473.50
2023-04-15T09:05:36.484Z,101490.63
2023-04-15T09:08:03.038Z,101480.56
2023-04-15T09:10:29.813Z,101487.03
2023-04-15T09:12:57.096Z,101487.50
2023-04-15T09:15:32.324Z,101495.84
2023-04-15T09:17:58.802Z,101499.81
2023-04-15T09:20:25.241Z,101506.25
2023-04-15T09:22:52.284Z,101500.41
2023-04-15T09:25:21.678Z,101505.22
2023-04-15T09:27:49.316Z,101503.88
2023-04-15T09:30:16.905Z,101514.63
2023-04-15T09:33:10.790Z,101529.19
2023-04-15T09:35:37.226Z,101525.56
2023-04-15T09:38:06.226Z,101522.25
2023-04-15T09:40:42.205Z,101523.88
2023-04-15T09:43:10.680Z,101527.72
2023-04-15T09:45:37.189Z,101535.19
2023-04-15T09:48:30.947Z,101530.81
2023-04-15T09:51:01.344Z,101526.69
2023-04-15T09:53:30.473Z,101530.50
2023-04-15T09:56:00.728Z,101535.75
2023-04-15T09:58:28.991Z,101535.84
2023-04-15T10:00:57.126Z,101537.13
2023-04-15T10:03:26.639Z,101535.44
2023-04-15T10:05:55.827Z,101538.81
2023-04-15T10:08:24.910Z,101536.75
2023-04-15T10:10:52.348Z,101548.47
2023-04-15T10:13:20.676Z,101550.09
2023-04-15T10:15:56.017Z,101557.47
2023-04-15T10:18:25.344Z,101550.59
2023-04-15T10:20:52.838Z,101557.25
2023-04-15T10:23:20.674Z,101560.03
2023-04-15T10:25:48.834Z,101554.88
2023-04-15T10:28:17.124Z,101560.13
2023-04-15T10:30:43.957Z,101548.47
2023-04-15T10:33:11.238Z,101556.16
2023-04-15T10:35:39.233Z,101564.09
2023-04-15T10:38:43.485Z,101567.41
2023-04-15T10:41:25.123Z,101568.16
2023-04-15T10:43:56.120Z,101575.03
2023-04-15T10:46:24.600Z,101573.47
2023-04-15T10:48:52.748Z,101578.25
2023-04-15T10:51:32.131Z,101577.84
2023-04-15T10:54:01.739Z,101579.38
2023-04-15T10:56:30.280Z,101582.09
2023-04-15T10:58:59.158Z,101590.19
2023-04-15T11:01:52.092Z,101598.53
2023-04-15T11:04:52.936Z,101587.25
2023-04-15T11:07:39.243Z,101594.44
2023-04-15T11:10:17.623Z,101585.38
2023-04-15T11:13:26.689Z,101592.63
2023-04-15T11:15:58.360Z,101590.13
2023-04-15T11:18:28.018Z,101604.50
2023-04-15T11:20:57.351Z,101606.06
2023-04-15T11:23:35.279Z,101601.97
2023-04-15T11:26:05.450Z,101593.72
2023-04-15T11:28:33.279Z,101604.31
2023-04-15T11:31:06.625Z,101609.81
2023-04-15T11:33:32.952Z,101609.84
2023-04-15T11:35:59.389Z,101603.66
2023-04-15T11:38:25.808Z,101604.78
2023-04-15T11:40:52.599Z,101595.63
2023-04-15T11:43:23.244Z,101606.53
2023-04-15T11:45:53.438Z,101604.03
2023-04-15T11:48:22.170Z,101614.78
2023-04-15T11:50:57.046Z,101607.63
2023-04-15T11:53:24.175Z,101614.81
2023-04-15T11:55:52.701Z,101619.72
2023-04-15T11:58:22.357Z,101614.78
2023-04-15T12:00:59.964Z,101614.78
2023-04-15T12:03:49.044Z,101637.59
2023-04-15T12:06:21.367Z,101637.97
2023-04-15T12:08:58.996Z,101632.59
2023-04-15T12:11:48.252Z,101635.06
2023-04-15T12:14:21.611Z,101646.03
2023-04-15T12:16:51.870Z,101648.22
2023-04-15T12:19:29.937Z,101654.81
2023-04-15T12:22:05.398Z,101648.78
2023-04-15T12:24:33.282Z,101647.31
2023-04-15T12:27:07.795Z,101655.56
2023-04-15T12:29:36.004Z,101670.13
2023-04-15T12:32:12.459Z,101669.66
2023-04-15T12:34:44.807Z,101669.94
2023-04-15T12:37:14.105Z,101670.13
2023-04-15T12:39:45.011Z,101677.41
2023-04-15T12:42:12.329Z,101677.59
2023-04-15T12:44:39.389Z,101677.34
2023-04-15T12:47:07.084Z,101682.88
2023-04-15T12:49:33.815Z,101678.69
2023-04-15T12:52:01.611Z,101696.03
2023-04-15T12:54:29.568Z,101687.84
2023-04-15T12:56:56.417Z,101705.81
2023-04-15T12:59:24.337Z,101704.53
2023-04-15T13:01:52.199Z,101691.38
2023-04-15T13:04:20.120Z,101707.78
2023-04-15T13:06:46.768Z,101710.78
2023-04-15T13:09:13.132Z,101723.34
2023-04-15T13:11:39.564Z,101720.53
2023-04-15T13:14:08.454Z,101725.69
2023-04-15T13:16:35.336Z,101726.91
2023-04-15T13:19:03.523Z,101737.78
2023-04-15T13:21:31.255Z,101744.00
2023-04-15T13:23:57.722Z,101738.84
2023-04-15T13:26:24.181Z,101753.69
2023-04-15T13:28:50.493Z,101738.31
2023-04-15T13:31:17.088Z,101751.84
2023-04-15T13:33:43.481Z,101748.78
2023-04-15T13:36:09.887Z,101754.88
2023-04-15T13:38:36.418Z,101756.50
2023-04-15T13:41:02.730Z,101756.84
2023-04-15T13:43:29.160Z,101755.91
2023-04-15T13:45:55.994Z,101765.25
2023-04-15T13:48:22.431Z,101773.91
2023-04-15T13:50:48.791Z,101769.72
2023-04-15T13:53:15.172Z,101772.97
2023-04-15T13:55:42.702Z,101786.13
2023-04-15T13:58:09.908Z,101780.41
2023-04-15T14:00:36.392Z,101786.22
2023-04-15T14:03:02.940Z,101779.19
2023-04-15T14:05:29.500Z,101789.03
2023-04-15T14:07:55.921Z,101788.97
2023-04-15T14:10:22.313Z,101792.59
2023-04-15T14:12:48.648Z,101792.72
2023-04-15T14:15:16.203Z,101798.25
2023-04-15T14:17:42.944Z,101790.28
2023-04-15T14:20:09.990Z,101805.00
2023-04-15T14:22:36.415Z,101810.56
2023-04-15T14:25:02.854Z,101823.22
2023-04-15T14:27:29.294Z,101824.47
2023-04-15T14:29:55.692Z,101822.59
2023-04-15T14:32:22.060Z,101815.13
2023-04-15T14:34:48.437Z,101825.47
2023-04-15T14:37:14.821Z,101828.09
2023-04-15T14:39:41.258Z,101842.84
2023-04-15T14:42:07.691Z,101839.28
2023-04-15T14:44:34.145Z,101844.13
2023-04-15T14:47:00.696Z,101837.81
2023-04-15T14:49:27.137Z,101843.66
2023-04-15T14:51:53.531Z,101852.66
2023-04-15T14:54:21.912Z,101857.84
2023-04-15T14:56:48.676Z,101865.41
2023-04-15T14:59:15.275Z,101868.56
2023-04-15T15:01:41.882Z,101880.91
2023-04-15T15:04:10.317Z,101873.22
2023-04-15T15:06:36.829Z,101877.31
2023-04-15T15:09:03.385Z,101878.53
2023-04-15T15:11:30.302Z,101880.41
2023-04-15T15:13:57.050Z,101889.31
2023-04-15T15:16:23.630Z,101895.13
2023-04-15T15:18:51.342Z,101884.56
2023-04-15T15:21:17.960Z,101893.44
2023-04-15T15:23:44.868Z,101898.31
2023-04-15T15:26:12.087Z,101897.06
2023-04-15T15:28:38.510Z,101903.91
2023-04-15T15:31:05.538Z,101910.19
2023-04-15T15:33:32.723Z,101897.41
2023-04-15T15:35:59.256Z,101917.97
2023-04-15T15:38:26.238Z,101915.59
2023-04-15T15:40:52.640Z,101924.69
2023-04-15T15:43:18.999Z,101923.06
2023-04-15T15:45:45.635Z,101926.84
2023-04-15T15:48:12.003Z,101927.50
2023-04-15T15:50:38.384Z,101923.09
2023-04-15T15:53:04.917Z,101928.50
2023-04-15T15:55:31.292Z,101930.41
2023-04-15T15:57:57.632Z,101934.25
2023-04-15T16:00:24.118Z,101925.78
2023-04-15T16:03:05.742Z,101942.03
2023-04-15T16:05:33.416Z,101937.09
2023-04-15T16:07:59.841Z,101948.66
2023-04-15T16:10:26.396Z,101946.38
2023-04-15T16:12:52.762Z,101954.97
2023-04-15T16:15:19.170Z,101952.50
2023-04-15T16:17:45.795Z,101954.38
2023-04-15T16:20:12.157Z,101967.06
2023-04-15T16:22:38.864Z,101958.75
2023-04-15T16:25:05.589Z,101966.81
2023-04-15T16:27:32.232Z,101965.59
2023-04-15T16:29:58.636Z,101960.63
2023-04-15T16:32:26.601Z,101976.47
2023-04-15T16:34:53.132Z,101971.66
2023-04-15T16:37:20.701Z,101982.06
2023-04-15T16:39:47.455Z,101984.53
2023-04-15T16:42:13.863Z,101984.16
2023-04-15T16:44:40.269Z,101986.88
2023-04-15T16:47:08.838Z,101992.28
2023-04-15T16:49:35.482Z,101994.16
2023-04-15T16:52:02.398Z,101999.13
2023-04-15T16:54:29.706Z,101997.88
2023-04-15T16:56:58.486Z,101996.84
2023-04-15T16:59:25.830Z,102004.13
2023-04-15T17:01:52.270Z,102006.41
2023-04-15T17:04:18.849Z,102003.50
2023-04-15T17:06:45.698Z,102011.84
2023-04-15T17:09:12.036Z,102005.59
2023-04-15T17:11:40.528Z,102005.38
2023-04-15T17:14:07.368Z,102011.63
2023-04-15T17:16:33.790Z,102019.94
2023-04-15T17:19:00.503Z,102019.34
2023-04-15T17:21:27.349Z,102020.78
2023-04-15T17:23:54.161Z,102015.78
2023-04-15T17:26:20.734Z,102033.66
2023-04-15T17:28:47.100Z,102030.78
2023-04-15T17:31:13.594Z,102035.53
2023-04-15T17:33:59.994Z,102034.28
2023-04-15T17:36:27.096Z,102030.75
2023-04-15T17:38:56.181Z,102036.38
2023-04-15T17:41:23.064Z,102042.81
2023-04-15T17:43:49.493Z,102044.50
2023-04-15T17:46:15.942Z,102043.66
2023-04-15T17:48:42.353Z,102041.53
2023-04-15T17:51:08.695Z,102046.94
2023-04-15T17:53:35.061Z,102052.38
2023-04-15T17:56:01.380Z,102066.91
2023-04-15T17:58:28.363Z,102068.56
2023-04-15T18:00:54.769Z,102065.66
2023-04-15T18:03:22.091Z,102076.66
2023-04-15T18:05:48.651Z,102069.38
2023-04-15T18:08:15.021Z,102069.38
2023-04-15T18:10:41.319Z,102080.41
2023-04-15T18:13:07.701Z,102072.25
2023-04-15T18:15:34.685Z,102074.56
2023-04-15T18:18:01.472Z,102081.41
2023-04-15T18:20:29.047Z,102085.13
2023-04-15T18:22:55.682Z,102091.78
2023-04-15T18:25:21.992Z,102089.91
2023-04-15T18:27:48.323Z,102097.16
2023-04-15T18:30:14.677Z,102087.59
2023-04-15T18:32:41.440Z,102095.91
2023-04-15T18:35:08.363Z,102105.09
2023-04-15T18:37:35.276Z,102092.59
2023-04-15T18:40:01.698Z,102102.78
2023-04-15T18:42:28.123Z,102102.97
2023-04-15T18:44:54.666Z,102106.28
2023-04-15T18:47:21.195Z,102114.97
2023-04-15T18:49:47.686Z,102112.03
2023-04-15T18:52:14.003Z,102114.06
2023-04-15T18:54:40.409Z,102114.06
2023-04-15T18:57:06.843Z,102111.16
2023-04-15T18:59:33.671Z,102126.91
2023-04-15T19:02:00.455Z,102127.72
2023-04-15T19:04:28.805Z,102122.34
2023-04-15T19:06:55.941Z,102134.59
2023-04-15T19:09:22.374Z,102141.06
2023-04-15T19:11:48.818Z,102145.00
2023-04-15T19:14:15.168Z,102141.66
2023-04-15T19:16:41.534Z,102130.00
2023-04-15T19:19:07.972Z,102143.72
2023-04-15T19:21:34.464Z,102136.47
2023-04-15T19:24:01.196Z,102138.31
2023-04-15T19:26:27.569Z,102141.41
2023-04-15T19:28:54.578Z,102148.25
2023-04-15T19:31:21.084Z,102153.00
2023-04-15T19:33:47.510Z,102141.34
2023-04-15T19:36:13.862Z,102154.28
2023-04-15T19:38:40.460Z,102152.16
2023-04-15T19:41:06.774Z,102158.78
2023-04-15T19:43:33.268Z,102160.69
2023-04-15T19:45:59.735Z,102150.13
2023-04-15T19:48:26.268Z,102158.50
2023-04-15T19:50:52.722Z,102168.00
2023-04-15T19:53:19.097Z,102166.34
2023-04-15T19:55:47.094Z,102172.38
2023-04-15T19:58:13.493Z,102171.34
2023-04-15T20:00:39.877Z,102167.00
2023-04-15T20:03:06.452Z,102174.44
2023-04-15T20:05:32.983Z,102178.19
2023-04-15T20:08:00.871Z,102170.94
2023-04-15T20:10:27.491Z,102178.38
2023-04-15T20:12:53.887Z,102175.03
2023-04-15T20:15:21.481Z,102177.09
2023-04-15T20:17:47.895Z,102170.09
2023-04-15T20:20:14.373Z,102174.19
2023-04-15T20:22:41.444Z,102173.34
2023-04-15T20:25:08.021Z,102173.19
2023-04-15T20:27:34.346Z,102172.97
2023-04-15T20:30:00.864Z,102184.22
2023-04-15T20:32:28.120Z,102185.88
2023-04-15T20:34:54.820Z,102183.38
2023-04-15T20:37:21.355Z,102180.03
2023-04-15T20:39:47.750Z,102181.44
2023-04-15T20:42:14.105Z,102186.66
2023-04-15T20:44:40.570Z,102173.19
2023-04-15T20:47:07.331Z,102177.94
2023-04-15T20:49:37.778Z,102186.22
2023-04-15T20:52:05.446Z,102189.38
2023-04-15T20:54:31.868Z,102192.06
2023-04-15T20:56:58.294Z,102187.13
2023-04-15T20:59:25.150Z,102189.56
2023-04-15T21:01:51.557Z,102185.78
2023-04-15T21:04:18.078Z,102196.56
2023-04-15T21:06:44.627Z,102192.06
2023-04-15T21:09:11.037Z,102198.25
2023-04-15T21:14:08.112Z,102201.19
2023-04-15T21:16:34.772Z,102203.25
2023-04-15T21:19:01.253Z,102199.28
2023-04-15T21:21:28.000Z,102202.34
2023-04-15T21:23:54.357Z,102203.41
2023-04-15T21:26:20.717Z,102202.34
2023-04-15T21:28:47.107Z,102205.06
2023-04-15T21:31:13.519Z,102207.38
2023-04-15T21:33:39.884Z,102206.94
2023-04-15T21:36:06.639Z,102210.22
2023-04-15T21:38:33.883Z,102215.81
2023-04-15T21:41:01.140Z,102208.16
2023-04-15T21:43:27.641Z,102215.84
2023-04-15T21:46:23.229Z,102214.00
2023-04-15T21:48:40.419Z,102213.16
2023-04-15T21:51:07.484Z,102215.66
2023-04-15T21:53:33.868Z,102211.34
2023-04-15T21:56:00.370Z,102219.69
2023-04-15T21:58:26.739Z,102229.22
2023-04-15T22:00:57.388Z,102229.22
2023-04-15T22:03:24.419Z,102231.94
2023-04-15T22:05:51.082Z,102229.84
2023-04-15T22:08:17.454Z,102231.50
2023-04-15T22:10:44.081Z,102233.81
2023-04-15T22:13:11.333Z,102235.50
2023-04-15T22:15:37.751Z,102234.09
2023-04-15T22:18:04.597Z,102241.53
2023-04-15T22:20:31.199Z,102244.88
2023-04-15T22:22:57.956Z,102237.81
2023-04-15T22:25:24.370Z,102240.13
2023-04-15T22:27:50.868Z,102233.88
2023-04-15T22:30:17.283Z,102239.72
2023-04-15T22:32:43.637Z,102245.53
2023-04-15T22:35:10.053Z,102241.97
2023-04-15T22:37:36.439Z,102244.88
2023-04-15T22:40:03.199Z,102244.88
2023-04-15T22:42:29.557Z,102247.31
2023-04-15T22:44:56.055Z,102244.81
2023-04-15T22:47:22.452Z,102252.09
2023-04-15T22:49:48.800Z,102245.84
2023-04-15T22:52:29.511Z,102250.00
2023-04-15T22:54:57.045Z,102246.50
2023-04-15T22:57:23.537Z,102254.59
2023-04-15T22:59:50.011Z,102254.41
2023-04-15T23:02:16.537Z,102257.31
2023-04-15T23:04:43.055Z,102266.22
2023-04-15T23:07:09.453Z,102261.66
2023-04-15T23:09:35.882Z,102264.75
2023-04-15T23:12:02.937Z,102269.75
2023-04-15T23:14:30.038Z,102271.63
2023-04-15T23:16:57.569Z,102270.59
2023-04-15T23:19:24.093Z,102270.59
2023-04-15T23:21:50.936Z,102274.97
2023-04-15T23:24:17.280Z,102276.38
2023-04-15T23:26:43.728Z,102275.53
2023-04-15T23:29:10.374Z,102279.28
2023-04-15T23:31:36.992Z,102280.09
2023-04-15T23:34:03.545Z,102283.63
2023-04-15T23:36:29.894Z,102285.09
2023-04-15T23:38:56.264Z,102287.19
2023-04-15T23:41:22.679Z,102291.16
2023-04-15T23:43:49.778Z,102286.78
2023-04-15T23:46:16.862Z,102288.47
2023-04-15T23:48:43.386Z,102284.31
2023-04-15T23:51:09.789Z,102298.59
2023-04-15T23:53:36.229Z,102296.56
2023-04-15T23:56:02.797Z,102291.97
2023-04-15T23:58:29.187Z,102293.59
